sensor_id;sensor_type;location;lat;lon;timestamp;pressure;altitude;pressure_sealevel;temperature;humidity
54556;BME280;57291;37.520;15.106;2024-03-22T00:01:48;101676.84;;;13.74;97.37
54556;BME280;57291;37.520;15.106;2024-03-22T00:04:14;101660.69;;;13.78;97.75
54556;BME280;57291;37.520;15.106;2024-03-22T00:06:45;101676.00;;;13.79;97.96
54556;BME280;57291;37.520;15.106;2024-03-22T00:09:12;101681.97;;;13.81;98.12
54556;BME280;57291;37.520;15.106;2024-03-22T00:11:42;101677.88;;;13.78;98.21
54556;BME280;57291;37.520;15.106;2024-03-22T00:14:09;101686.34;;;13.82;98.16
54556;BME280;57291;37.520;15.106;2024-03-22T00:16:36;101684.69;;;13.81;97.98
54556;BME280;57291;37.520;15.106;2024-03-22T00:19:02;101682.84;;;13.76;97.59
54556;BME280;57291;37.520;15.106;2024-03-22T00:21:29;101681.72;;;13.77;97.43
54556;BME280;57291;37.520;15.106;2024-03-22T00:23:56;101673.84;;;13.76;97.09
54556;BME280;57291;37.520;15.106;2024-03-22T00:26:22;101677.38;;;13.76;96.88
54556;BME280;57291;37.520;15.106;2024-03-22T00:28:49;101674.66;;;13.76;96.33
54556;BME280;57291;37.520;15.106;2024-03-22T00:31:16;101680.13;;;13.76;95.32
54556;BME280;57291;37.520;15.106;2024-03-22T00:33:42;101684.69;;;13.81;94.85
54556;BME280;57291;37.520;15.106;2024-03-22T00:36:09;101671.34;;;13.79;94.61
54556;BME280;57291;37.520;15.106;2024-03-22T00:38:35;101672.94;;;13.80;94.80
54556;BME280;57291;37.520;15.106;2024-03-22T00:41:01;101668.06;;;13.77;94.74
54556;BME280;57291;37.520;15.106;2024-03-22T00:43:28;101666.75;;;13.75;94.95
54556;BME280;57291;37.520;15.106;2024-03-22T00:45:54;101652.84;;;13.71;95.69
54556;BME280;57291;37.520;15.106;2024-03-22T00:48:21;101652.84;;;13.71;95.95
54556;BME280;57291;37.520;15.106;2024-03-22T00:50:47;101643.56;;;13.72;96.76
54556;BME280;57291;37.520;15.106;2024-03-22T00:53:14;101635.97;;;13.69;97.56
54556;BME280;57291;37.520;15.106;2024-03-22T00:55:40;101630.78;;;13.68;97.79
54556;BME280;57291;37.520;15.106;2024-03-22T00:58:06;101626.22;;;13.63;98.56
54556;BME280;57291;37.520;15.106;2024-03-22T01:00:32;101619.41;;;13.60;99.17
54556;BME280;57291;37.520;15.106;2024-03-22T01:02:59;101619.41;;;13.60;100.00
54556;BME280;57291;37.520;15.106;2024-03-22T01:05:25;101618.06;;;13.58;100.00
54556;BME280;57291;37.520;15.106;2024-03-22T01:07:52;101620.78;;;13.58;100.00
54556;BME280;57291;37.520;15.106;2024-03-22T01:10:18;101610.47;;;13.55;100.00
54556;BME280;57291;37.520;15.106;2024-03-22T01:12:44;101607.50;;;13.51;100.00
54556;BME280;57291;37.520;15.106;2024-03-22T01:15:11;101604.28;;;13.49;100.00
54556;BME280;57291;37.520;15.106;2024-03-22T01:17:37;101611.63;;;13.49;100.00
54556;BME280;57291;37.520;15.106;2024-03-22T01:20:04;101607.06;;;13.44;100.00
54556;BME280;57291;37.520;15.106;2024-03-22T01:22:30;101602.50;;;13.40;100.00
54556;BME280;57291;37.520;15.106;2024-03-22T01:24:57;101602.25;;;13.36;100.00
54556;BME280;57291;37.520;15.106;2024-03-22T01:27:23;101592.19;;;13.31;100.00
54556;BME280;57291;37.520;15.106;2024-03-22T01:29:49;101582.97;;;13.27;100.00
54556;BME280;57291;37.520;15.106;2024-03-22T01:32:15;101578.31;;;13.28;100.00
54556;BME280;57291;37.520;15.106;2024-03-22T01:34:42;101574.47;;;13.29;100.00
54556;BME280;57291;37.520;15.106;2024-03-22T01:37:08;101568.75;;;13.30;100.00
54556;BME280;57291;37.520;15.106;2024-03-22T01:39:35;101567.63;;;13.31;100.00
54556;BME280;57291;37.520;15.106;2024-03-22T01:42:01;101562.97;;;13.32;100.00
54556;BME280;57291;37.520;15.106;2024-03-22T01:44:28;101544.97;;;13.31;100.00
54556;BME280;57291;37.520;15.106;2024-03-22T01:46:55;101547.50;;;13.27;100.00
54556;BME280;57291;37.520;15.106;2024-03-22T01:49:24;101545.56;;;13.28;100.00
54556;BME280;57291;37.520;15.106;2024-03-22T01:51:51;101549.69;;;13.25;100.00
54556;BME280;57291;37.520;15.106;2024-03-22T01:54:20;101543.41;;;13.25;100.00
54556;BME280;57291;37.520;15.106;2024-03-22T01:56:47;101534.75;;;13.18;100.00
54556;BME280;57291;37.520;15.106;2024-03-22T01:59:13;101531.25;;;13.12;100.00
54556;BME280;57291;37.520;15.106;2024-03-22T02:01:40;101524.78;;;13.08;100.00
54556;BME280;57291;37.520;15.106;2024-03-22T02:04:06;101525.34;;;13.05;100.00
54556;BME280;57291;37.520;15.106;2024-03-22T02:06:33;101529.44;;;13.07;100.00
54556;BME280;57291;37.520;15.106;2024-03-22T02:08:59;101520.13;;;13.08;100.00
54556;BME280;57291;37.520;15.106;2024-03-22T02:11:26;101520.47;;;13.02;100.00
54556;BME280;57291;37.520;15.106;2024-03-22T02:13:52;101524.38;;;12.96;100.00
54556;BME280;57291;37.520;15.106;2024-03-22T02:16:19;101529.09;;;12.90;100.00
54556;BME280;57291;37.520;15.106;2024-03-22T02:18:45;101535.41;;;12.85;100.00
54556;BME280;57291;37.520;15.106;2024-03-22T02:21:11;101527.31;;;12.80;100.00
54556;BME280;57291;37.520;15.106;2024-03-22T02:23:39;101513.19;;;12.73;100.00
54556;BME280;57291;37.520;15.106;2024-03-22T02:26:06;101500.88;;;12.76;100.00
54556;BME280;57291;37.520;15.106;2024-03-22T02:28:34;101489.16;;;12.75;100.00
54556;BME280;57291;37.520;15.106;2024-03-22T02:31:04;101478.34;;;12.70;100.00
54556;BME280;57291;37.520;15.106;2024-03-22T02:33:31;101467.47;;;12.65;100.00
54556;BME280;57291;37.520;15.106;2024-03-22T02:35:57;101470.19;;;12.65;100.00
54556;BME280;57291;37.520;15.106;2024-03-22T02:38:23;101466.09;;;12.67;100.00
54556;BME280;57291;37.520;15.106;2024-03-22T02:40:52;101475.59;;;12.70;100.00
54556;BME280;57291;37.520;15.106;2024-03-22T02:43:18;101456.78;;;12.68;99.38
54556;BME280;57291;37.520;15.106;2024-03-22T02:45:47;101456.50;;;12.70;98.87
54556;BME280;57291;37.520;15.106;2024-03-22T02:48:13;101451.63;;;12.67;97.45
54556;BME280;57291;37.520;15.106;2024-03-22T02:50:40;101458.75;;;12.63;96.75
54556;BME280;57291;37.520;15.106;2024-03-22T02:53:07;101460.97;;;12.61;96.56
54556;BME280;57291;37.520;15.106;2024-03-22T02:55:40;101451.47;;;12.58;96.09
54556;BME280;57291;37.520;15.106;2024-03-22T02:58:07;101450.13;;;12.56;96.06
54556;BME280;57291;37.520;15.106;2024-03-22T03:00:37;101450.69;;;12.53;95.92
54556;BME280;57291;37.520;15.106;2024-03-22T03:03:07;101463.81;;;12.51;95.61
54556;BME280;57291;37.520;15.106;2024-03-22T03:05:34;101458.38;;;12.51;95.86
54556;BME280;57291;37.520;15.106;2024-03-22T03:08:03;101464.91;;;12.50;95.59
54556;BME280;57291;37.520;15.106;2024-03-22T03:10:30;101464.91;;;12.50;95.74
54556;BME280;57291;37.520;15.106;2024-03-22T03:12:56;101457.03;;;12.48;95.96
54556;BME280;57291;37.520;15.106;2024-03-22T03:15:22;101454.31;;;12.48;95.73
54556;BME280;57291;37.520;15.106;2024-03-22T03:17:49;101451.03;;;12.46;95.17
54556;BME280;57291;37.520;15.106;2024-03-22T03:20:15;101454.34;;;12.43;94.61
54556;BME280;57291;37.520;15.106;2024-03-22T03:22:42;101440.00;;;12.37;94.44
54556;BME280;57291;37.520;15.106;2024-03-22T03:25:08;101447.97;;;12.29;93.55
54556;BME280;57291;37.520;15.106;2024-03-22T03:27:35;101445.81;;;12.26;94.41
54556;BME280;57291;37.520;15.106;2024-03-22T03:30:02;101446.63;;;12.26;94.49
54556;BME280;57291;37.520;15.106;2024-03-22T03:32:28;101438.47;;;12.26;94.17
54556;BME280;57291;37.520;15.106;2024-03-22T03:34:54;101434.13;;;12.25;93.22
54556;BME280;57291;37.520;15.106;2024-03-22T03:37:21;101418.34;;;12.22;92.25
54556;BME280;57291;37.520;15.106;2024-03-22T03:39:48;101418.16;;;12.13;91.15
54556;BME280;57291;37.520;15.106;2024-03-22T03:42:14;101415.19;;;12.10;90.98
54556;BME280;57291;37.520;15.106;2024-03-22T03:44:41;101425.81;;;12.11;91.25
54556;BME280;57291;37.520;15.106;2024-03-22T03:47:07;101423.09;;;12.11;91.09
54556;BME280;57291;37.520;15.106;2024-03-22T03:49:34;101429.34;;;12.12;90.70
54556;BME280;57291;37.520;15.106;2024-03-22T03:52:00;101431.78;;;12.13;90.50
54556;BME280;57291;37.520;15.106;2024-03-22T03:54:26;101432.88;;;12.12;90.52
54556;BME280;57291;37.520;15.106;2024-03-22T03:56:52;101430.97;;;12.13;90.71
54556;BME280;57291;37.520;15.106;2024-03-22T03:59:19;101427.44;;;12.12;90.71
54556;BME280;57291;37.520;15.106;2024-03-22T04:01:45;101429.63;;;12.10;91.00
54556;BME280;57291;37.520;15.106;2024-03-22T04:04:11;101434.56;;;12.08;91.05
54556;BME280;57291;37.520;15.106;2024-03-22T04:06:37;101429.94;;;12.09;90.98
54556;BME280;57291;37.520;15.106;2024-03-22T04:09:04;101433.75;;;12.08;90.54
54556;BME280;57291;37.520;15.106;2024-03-22T04:11:31;101441.94;;;12.08;89.93
54556;BME280;57291;37.520;15.106;2024-03-22T04:13:57;101445.75;;;12.07;89.45
54556;BME280;57291;37.520;15.106;2024-03-22T04:16:23;101446.53;;;12.07;89.32
54556;BME280;57291;37.520;15.106;2024-03-22T04:18:50;101428.59;;;12.06;89.14
54556;BME280;57291;37.520;15.106;2024-03-22T04:21:17;101419.59;;;12.06;89.30
54556;BME280;57291;37.520;15.106;2024-03-22T04:23:44;101431.03;;;12.08;89.63
54556;BME280;57291;37.520;15.106;2024-03-22T04:26:10;101445.47;;;12.08;89.65
54556;BME280;57291;37.520;15.106;2024-03-22T04:28:36;101454.69;;;12.12;89.55
54556;BME280;57291;37.520;15.106;2024-03-22T04:31:04;101458.22;;;12.13;89.43
54556;BME280;57291;37.520;15.106;2024-03-22T04:33:32;101454.69;;;12.12;88.99
54556;BME280;57291;37.520;15.106;2024-03-22T04:35:59;101452.22;;;12.11;88.65
54556;BME280;57291;37.520;15.106;2024-03-22T04:38:27;101454.69;;;12.12;87.71
54556;BME280;57291;37.520;15.106;2024-03-22T04:40:54;101447.28;;;12.18;87.10
54556;BME280;57291;37.520;15.106;2024-03-22T04:43:20;101452.97;;;12.22;86.80
54556;BME280;57291;37.520;15.106;2024-03-22T04:45:47;101449.34;;;12.26;86.45
54556;BME280;57291;37.520;15.106;2024-03-22T04:48:18;101436.78;;;12.30;86.57
54556;BME280;57291;37.520;15.106;2024-03-22T04:50:45;101442.97;;;12.36;86.25
54556;BME280;57291;37.520;15.106;2024-03-22T04:53:13;101448.09;;;12.42;86.37
54556;BME280;57291;37.520;15.106;2024-03-22T04:55:39;101445.31;;;12.48;86.32
54556;BME280;57291;37.520;15.106;2024-03-22T04:58:17;101447.69;;;12.54;86.00
54556;BME280;57291;37.520;15.106;2024-03-22T05:00:44;101451.69;;;12.62;85.48
54556;BME280;57291;37.520;15.106;2024-03-22T05:03:11;101451.06;;;12.70;84.98
54556;BME280;57291;37.520;15.106;2024-03-22T05:05:38;101446.72;;;12.88;85.10
54556;BME280;57291;37.520;15.106;2024-03-22T05:08:05;101450.78;;;13.09;83.06
54556;BME280;57291;37.520;15.106;2024-03-22T05:10:32;101441.38;;;13.40;83.02
54556;BME280;57291;37.520;15.106;2024-03-22T05:12:58;101446.88;;;13.72;81.62
54556;BME280;57291;37.520;15.106;2024-03-22T05:15:25;101452.00;;;13.93;79.35
54556;BME280;57291;37.520;15.106;2024-03-22T05:17:51;101463.81;;;14.35;78.63
54556;BME280;57291;37.520;15.106;2024-03-22T05:20:18;101465.66;;;14.53;76.11
54556;BME280;57291;37.520;15.106;2024-03-22T05:22:44;101468.59;;;14.84;74.96
54556;BME280;57291;37.520;15.106;2024-03-22T05:25:10;101468.25;;;14.99;75.05
54556;BME280;57291;37.520;15.106;2024-03-22T05:27:38;101476.44;;;15.27;75.77
54556;BME280;57291;37.520;15.106;2024-03-22T05:30:05;101471.53;;;15.38;72.98
54556;BME280;57291;37.520;15.106;2024-03-22T05:32:31;101474.81;;;15.48;71.46
54556;BME280;57291;37.520;15.106;2024-03-22T05:34:57;101472.28;;;15.52;72.01
54556;BME280;57291;37.520;15.106;2024-03-22T05:37:23;101476.09;;;15.29;72.18
54556;BME280;57291;37.520;15.106;2024-03-22T05:39:50;101476.97;;;15.01;71.73
54556;BME280;57291;37.520;15.106;2024-03-22T05:42:16;101468.59;;;14.70;71.89
54556;BME280;57291;37.520;15.106;2024-03-22T05:44:47;101474.75;;;14.48;72.41
54556;BME280;57291;37.520;15.106;2024-03-22T05:47:13;101473.63;;;14.36;72.90
54556;BME280;57291;37.520;15.106;2024-03-22T05:49:39;101469.75;;;14.23;73.19
54556;BME280;57291;37.520;15.106;2024-03-22T05:52:06;101474.09;;;14.10;73.87
54556;BME280;57291;37.520;15.106;2024-03-22T05:54:32;101464.53;;;13.94;74.32
54556;BME280;57291;37.520;15.106;2024-03-22T05:56:58;101461.91;;;13.89;75.07
54556;BME280;57291;37.520;15.106;2024-03-22T05:59:26;101455.31;;;13.90;75.35
54556;BME280;57291;37.520;15.106;2024-03-22T06:01:53;101458.53;;;13.92;75.60
54556;BME280;57291;37.520;15.106;2024-03-22T06:04:19;101456.16;;;14.18;75.92
54556;BME280;57291;37.520;15.106;2024-03-22T06:06:46;101459.75;;;14.32;76.15
54556;BME280;57291;37.520;15.106;2024-03-22T06:09:13;101457.75;;;14.79;76.28
54556;BME280;57291;37.520;15.106;2024-03-22T06:11:46;101459.72;;;15.96;74.90
54556;BME280;57291;37.520;15.106;2024-03-22T06:14:12;101463.38;;;17.20;71.06
54556;BME280;57291;37.520;15.106;2024-03-22T06:16:39;101458.56;;;18.33;66.56
54556;BME280;57291;37.520;15.106;2024-03-22T06:19:05;101466.66;;;19.39;62.21
54556;BME280;57291;37.520;15.106;2024-03-22T06:21:31;101464.44;;;20.32;58.69
54556;BME280;57291;37.520;15.106;2024-03-22T06:23:57;101457.59;;;21.16;54.64
54556;BME280;57291;37.520;15.106;2024-03-22T06:26:24;101452.50;;;21.70;51.59
54556;BME280;57291;37.520;15.106;2024-03-22T06:28:50;101452.78;;;22.25;48.76
54556;BME280;57291;37.520;15.106;2024-03-22T06:31:16;101455.09;;;22.55;47.99
54556;BME280;57291;37.520;15.106;2024-03-22T06:33:43;101446.41;;;23.07;44.88
54556;BME280;57291;37.520;15.106;2024-03-22T06:36:09;101444.47;;;23.27;43.65
54556;BME280;57291;37.520;15.106;2024-03-22T06:38:35;101442.75;;;23.23;44.91
54556;BME280;57291;37.520;15.106;2024-03-22T06:41:01;101444.97;;;23.13;47.36
54556;BME280;57291;37.520;15.106;2024-03-22T06:43:30;101451.44;;;23.02;46.50
54556;BME280;57291;37.520;15.106;2024-03-22T06:45:56;101444.41;;;22.73;47.79
54556;BME280;57291;37.520;15.106;2024-03-22T06:48:22;101441.38;;;22.78;46.57
54556;BME280;57291;37.520;15.106;2024-03-22T06:50:48;101431.22;;;22.50;46.18
54556;BME280;57291;37.520;15.106;2024-03-22T06:53:14;101441.63;;;22.21;46.99
54556;BME280;57291;37.520;15.106;2024-03-22T06:55:40;101437.91;;;22.01;47.04
54556;BME280;57291;37.520;15.106;2024-03-22T06:58:07;101443.31;;;22.26;47.65
54556;BME280;57291;37.520;15.106;2024-03-22T07:00:33;101459.13;;;21.97;48.99
54556;BME280;57291;37.520;15.106;2024-03-22T07:03:03;101454.56;;;21.45;50.27
54556;BME280;57291;37.520;15.106;2024-03-22T07:05:29;101451.28;;;21.99;47.49
54556;BME280;57291;37.520;15.106;2024-03-22T07:07:55;101449.72;;;22.30;46.01
54556;BME280;57291;37.520;15.106;2024-03-22T07:10:24;101446.19;;;22.81;44.22
54556;BME280;57291;37.520;15.106;2024-03-22T07:12:54;101451.59;;;23.09;42.79
54556;BME280;57291;37.520;15.106;2024-03-22T07:15:23;101450.19;;;22.48;43.90
54556;BME280;57291;37.520;15.106;2024-03-22T07:17:49;101461.97;;;21.29;46.33
54556;BME280;57291;37.520;15.106;2024-03-22T07:20:16;101470.44;;;20.47;48.46
54556;BME280;57291;37.520;15.106;2024-03-22T07:22:43;101468.06;;;19.66;50.33
54556;BME280;57291;37.520;15.106;2024-03-22T07:25:09;101473.19;;;19.35;50.86
54556;BME280;57291;37.520;15.106;2024-03-22T07:27:36;101480.63;;;18.92;52.16
54556;BME280;57291;37.520;15.106;2024-03-22T07:30:02;101483.78;;;18.35;56.93
54556;BME280;57291;37.520;15.106;2024-03-22T07:32:30;101482.28;;;17.56;59.92
54556;BME280;57291;37.520;15.106;2024-03-22T07:34:56;101488.69;;;16.91;61.99
54556;BME280;57291;37.520;15.106;2024-03-22T07:37:22;101487.22;;;16.45;62.89
54556;BME280;57291;37.520;15.106;2024-03-22T07:39:49;101492.41;;;16.46;63.65
54556;BME280;57291;37.520;15.106;2024-03-22T07:42:16;101494.84;;;16.56;62.86
54556;BME280;57291;37.520;15.106;2024-03-22T07:44:42;101493.16;;;16.78;60.11
54556;BME280;57291;37.520;15.106;2024-03-22T07:47:08;101484.84;;;16.92;59.01
54556;BME280;57291;37.520;15.106;2024-03-22T07:49:35;101465.78;;;16.95;57.44
54556;BME280;57291;37.520;15.106;2024-03-22T07:52:02;101457.38;;;16.92;57.06
54556;BME280;57291;37.520;15.106;2024-03-22T07:54:30;101455.69;;;16.73;57.25
54556;BME280;57291;37.520;15.106;2024-03-22T07:56:56;101455.88;;;16.77;58.33
54556;BME280;57291;37.520;15.106;2024-03-22T07:59:22;101445.72;;;16.86;59.16
54556;BME280;57291;37.520;15.106;2024-03-22T08:01:48;101423.75;;;16.77;61.71
54556;BME280;57291;37.520;15.106;2024-03-22T08:04:14;101406.84;;;16.44;61.38
54556;BME280;57291;37.520;15.106;2024-03-22T08:06:41;101404.91;;;16.36;63.62
54556;BME280;57291;37.520;15.106;2024-03-22T08:09:07;101401.25;;;16.18;62.77
54556;BME280;57291;37.520;15.106;2024-03-22T08:11:33;101389.19;;;16.19;61.44
54556;BME280;57291;37.520;15.106;2024-03-22T08:14:00;101384.16;;;16.12;59.87
54556;BME280;57291;37.520;15.106;2024-03-22T08:16:29;101377.38;;;16.10;59.90
54556;BME280;57291;37.520;15.106;2024-03-22T08:18:56;101376.59;;;16.18;59.79
54556;BME280;57291;37.520;15.106;2024-03-22T08:21:23;101377.03;;;16.11;59.88
54556;BME280;57291;37.520;15.106;2024-03-22T08:23:50;101371.28;;;16.22;60.79
54556;BME280;57291;37.520;15.106;2024-03-22T08:26:17;101369.56;;;16.43;60.19
54556;BME280;57291;37.520;15.106;2024-03-22T08:28:45;101366.19;;;16.46;60.46
54556;BME280;57291;37.520;15.106;2024-03-22T08:31:11;101356.06;;;16.55;60.11
54556;BME280;57291;37.520;15.106;2024-03-22T08:33:37;101356.56;;;16.75;59.01
54556;BME280;57291;37.520;15.106;2024-03-22T08:36:04;101341.09;;;16.79;59.84
54556;BME280;57291;37.520;15.106;2024-03-22T08:38:30;101346.03;;;16.59;61.00
54556;BME280;57291;37.520;15.106;2024-03-22T08:40:56;101344.75;;;16.57;61.16
54556;BME280;57291;37.520;15.106;2024-03-22T08:43:22;101334.25;;;16.68;59.75
54556;BME280;57291;37.520;15.106;2024-03-22T08:45:51;101338.03;;;16.89;60.66
54556;BME280;57291;37.520;15.106;2024-03-22T08:48:18;101344.78;;;17.00;60.04
54556;BME280;57291;37.520;15.106;2024-03-22T08:50:44;101342.22;;;16.95;60.12
54556;BME280;57291;37.520;15.106;2024-03-22T08:53:11;101340.09;;;17.27;59.34
54556;BME280;57291;37.520;15.106;2024-03-22T08:55:37;101336.84;;;17.42;57.98
54556;BME280;57291;37.520;15.106;2024-03-22T08:58:04;101342.47;;;17.46;58.72
54556;BME280;57291;37.520;15.106;2024-03-22T09:00:30;101337.47;;;17.39;61.16
54556;BME280;57291;37.520;15.106;2024-03-22T09:02:57;101333.47;;;17.19;55.69
54556;BME280;57291;37.520;15.106;2024-03-22T09:05:23;101341.72;;;17.10;57.03
54556;BME280;57291;37.520;15.106;2024-03-22T09:07:49;101342.38;;;17.16;58.04
54556;BME280;57291;37.520;15.106;2024-03-22T09:10:19;101342.66;;;17.32;58.74
54556;BME280;57291;37.520;15.106;2024-03-22T09:12:45;101342.75;;;17.70;59.12
54556;BME280;57291;37.520;15.106;2024-03-22T09:15:12;101340.66;;;17.58;56.25
54556;BME280;57291;37.520;15.106;2024-03-22T09:17:38;101344.72;;;17.44;57.77
54556;BME280;57291;37.520;15.106;2024-03-22T09:20:05;101343.31;;;17.38;58.06
54556;BME280;57291;37.520;15.106;2024-03-22T09:22:31;101354.13;;;17.43;57.85
54556;BME280;57291;37.520;15.106;2024-03-22T09:24:59;101359.22;;;17.88;59.33
54556;BME280;57291;37.520;15.106;2024-03-22T09:27:25;101349.16;;;17.92;56.41
54556;BME280;57291;37.520;15.106;2024-03-22T09:29:51;101356.88;;;17.51;56.00
54556;BME280;57291;37.520;15.106;2024-03-22T09:32:18;101349.97;;;17.28;57.65
54556;BME280;57291;37.520;15.106;2024-03-22T09:34:45;101346.56;;;17.14;59.60
54556;BME280;57291;37.520;15.106;2024-03-22T09:37:11;101347.69;;;17.04;59.00
54556;BME280;57291;37.520;15.106;2024-03-22T09:39:37;101350.78;;;17.02;59.91
54556;BME280;57291;37.520;15.106;2024-03-22T09:42:06;101354.00;;;17.13;58.45
54556;BME280;57291;37.520;15.106;2024-03-22T09:44:33;101356.41;;;17.23;57.60
54556;BME280;57291;37.520;15.106;2024-03-22T09:47:00;101355.59;;;17.23;57.97
54556;BME280;57291;37.520;15.106;2024-03-22T09:49:26;101359.03;;;17.11;58.66
54556;BME280;57291;37.520;15.106;2024-03-22T09:51:53;101350.78;;;17.02;59.82
54556;BME280;57291;37.520;15.106;2024-03-22T09:54:23;101342.53;;;17.11;60.21
54556;BME280;57291;37.520;15.106;2024-03-22T09:56:52;101344.16;;;17.12;61.83
54556;BME280;57291;37.520;15.106;2024-03-22T09:59:19;101337.38;;;17.18;62.35
54556;BME280;57291;37.520;15.106;2024-03-22T10:01:45;101332.97;;;17.26;63.01
54556;BME280;57291;37.520;15.106;2024-03-22T10:04:12;101338.47;;;17.26;64.39
54556;BME280;57291;37.520;15.106;2024-03-22T10:06:38;101325.47;;;17.61;64.39
54556;BME280;57291;37.520;15.106;2024-03-22T10:09:05;101334.75;;;17.95;63.71
54556;BME280;57291;37.520;15.106;2024-03-22T10:11:31;101336.41;;;17.87;63.64
54556;BME280;57291;37.520;15.106;2024-03-22T10:13:59;101339.06;;;17.57;64.63
54556;BME280;57291;37.520;15.106;2024-03-22T10:16:26;101332.78;;;17.48;65.24
54556;BME280;57291;37.520;15.106;2024-03-22T10:18:52;101333.25;;;17.50;64.30
54556;BME280;57291;37.520;15.106;2024-03-22T10:21:19;101326.78;;;17.55;62.60
54556;BME280;57291;37.520;15.106;2024-03-22T10:23:46;101327.88;;;17.63;61.23
54556;BME280;57291;37.520;15.106;2024-03-22T10:26:14;101332.38;;;17.85;61.84
54556;BME280;57291;37.520;15.106;2024-03-22T10:28:45;101322.38;;;17.71;62.90
54556;BME280;57291;37.520;15.106;2024-03-22T10:31:13;101317.53;;;17.77;63.10
54556;BME280;57291;37.520;15.106;2024-03-22T10:33:44;101324.28;;;17.79;64.14
54556;BME280;57291;37.520;15.106;2024-03-22T10:36:10;101326.78;;;17.55;64.53
54556;BME280;57291;37.520;15.106;2024-03-22T10:38:38;101320.50;;;17.46;67.24
54556;BME280;57291;37.520;15.106;2024-03-22T10:41:05;101314.84;;;17.33;69.44
54556;BME280;57291;37.520;15.106;2024-03-22T10:43:32;101321.69;;;17.19;72.54
54556;BME280;57291;37.520;15.106;2024-03-22T10:46:01;101317.34;;;17.18;75.21
54556;BME280;57291;37.520;15.106;2024-03-22T10:48:30;101322.00;;;17.17;76.51
54556;BME280;57291;37.520;15.106;2024-03-22T10:51:01;101322.50;;;17.28;73.92
54556;BME280;57291;37.520;15.106;2024-03-22T10:53:30;101314.56;;;17.35;73.80
54556;BME280;57291;37.520;15.106;2024-03-22T10:55:58;101325.97;;;17.54;69.99
54556;BME280;57291;37.520;15.106;2024-03-22T10:58:26;101326.28;;;17.53;67.96
54556;BME280;57291;37.520;15.106;2024-03-22T11:00:53;101324.16;;;17.67;68.81
54556;BME280;57291;37.520;15.106;2024-03-22T11:03:21;101324.81;;;17.64;66.40
54556;BME280;57291;37.520;15.106;2024-03-22T11:05:50;101319.00;;;17.57;66.65
54556;BME280;57291;37.520;15.106;2024-03-22T11:08:27;101324.31;;;17.62;65.82
54556;BME280;57291;37.520;15.106;2024-03-22T11:10:54;101325.78;;;17.68;63.67
54556;BME280;57291;37.520;15.106;2024-03-22T11:13:21;101323.81;;;17.69;63.05
54556;BME280;57291;37.520;15.106;2024-03-22T11:15:51;101328.69;;;17.80;63.38
54556;BME280;57291;37.520;15.106;2024-03-22T11:18:17;101327.69;;;17.85;63.67
54556;BME280;57291;37.520;15.106;2024-03-22T11:20:44;101327.53;;;17.81;64.06
54556;BME280;57291;37.520;15.106;2024-03-22T11:23:13;101327.31;;;17.87;63.86
54556;BME280;57291;37.520;15.106;2024-03-22T11:25:39;101321.94;;;17.99;62.29
54556;BME280;57291;37.520;15.106;2024-03-22T11:28:06;101325.31;;;18.04;60.63
54556;BME280;57291;37.520;15.106;2024-03-22T11:30:33;101320.06;;;18.20;58.01
54556;BME280;57291;37.520;15.106;2024-03-22T11:33:01;101310.94;;;18.28;57.22
54556;BME280;57291;37.520;15.106;2024-03-22T11:35:28;101319.28;;;18.20;54.01
54556;BME280;57291;37.520;15.106;2024-03-22T11:37:54;101327.03;;;18.18;57.75
54556;BME280;57291;37.520;15.106;2024-03-22T11:40:22;101318.50;;;18.11;57.61
54556;BME280;57291;37.520;15.106;2024-03-22T11:42:51;101313.97;;;18.36;56.58
54556;BME280;57291;37.520;15.106;2024-03-22T11:45:19;101307.03;;;18.59;54.05
54556;BME280;57291;37.520;15.106;2024-03-22T11:47:48;101313.34;;;18.81;49.37
54556;BME280;57291;37.520;15.106;2024-03-22T11:50:15;101314.66;;;19.16;48.00
54556;BME280;57291;37.520;15.106;2024-03-22T11:52:42;101309.69;;;19.43;47.14
54556;BME280;57291;37.520;15.106;2024-03-22T11:55:10;101298.03;;;19.71;47.80
54556;BME280;57291;37.520;15.106;2024-03-22T11:57:36;101296.78;;;19.92;48.77
54556;BME280;57291;37.520;15.106;2024-03-22T12:00:04;101302.75;;;20.07;49.15
54556;BME280;57291;37.520;15.106;2024-03-22T12:02:38;101296.97;;;20.61;47.53
54556;BME280;57291;37.520;15.106;2024-03-22T12:05:06;101299.72;;;20.61;48.36
54556;BME280;57291;37.520;15.106;2024-03-22T12:07:34;101304.50;;;20.11;50.69
54556;BME280;57291;37.520;15.106;2024-03-22T12:10:04;101308.88;;;19.88;50.49
54556;BME280;57291;37.520;15.106;2024-03-22T12:12:30;101310.81;;;19.75;51.80
54556;BME280;57291;37.520;15.106;2024-03-22T12:14:57;101295.53;;;19.78;51.84
54556;BME280;57291;37.520;15.106;2024-03-22T12:17:23;101296.44;;;20.06;52.41
54556;BME280;57291;37.520;15.106;2024-03-22T12:19:51;101284.31;;;20.35;50.91
54556;BME280;57291;37.520;15.106;2024-03-22T12:22:20;101296.94;;;20.73;50.74
54556;BME280;57291;37.520;15.106;2024-03-22T12:24:47;101285.78;;;20.98;50.35
54556;BME280;57291;37.520;15.106;2024-03-22T12:27:15;101281.56;;;20.88;50.27
54556;BME280;57291;37.520;15.106;2024-03-22T12:29:43;101280.19;;;20.42;51.86
54556;BME280;57291;37.520;15.106;2024-03-22T12:32:12;101281.72;;;19.90;53.49
54556;BME280;57291;37.520;15.106;2024-03-22T12:34:40;101289.88;;;19.74;52.72
54556;BME280;57291;37.520;15.106;2024-03-22T12:37:09;101284.75;;;19.39;54.84